sensor_id;sensor_type;location;lat;lon;timestamp;P1;durP1;ratioP1;P2;durP2;ratioP2
58091;SDS011;43896;48.178;11.578;2023-06-10T00:00:42;6.28;;;4.70;;
58091;SDS011;43896;48.178;11.578;2023-06-10T00:03:09;6.97;;;5.15;;
58091;SDS011;43896;48.178;11.578;2023-06-10T00:05:35;7.03;;;4.85;;
58091;SDS011;43896;48.178;11.578;2023-06-10T00:08:01;8.13;;;5.18;;
58091;SDS011;43896;48.178;11.578;2023-06-10T00:10:32;6.80;;;5.00;;
58091;SDS011;43896;48.178;11.578;2023-06-10T00:13:00;6.82;;;5.20;;
58091;SDS011;43896;48.178;11.578;2023-06-10T00:15:26;6.63;;;4.85;;
58091;SDS011;43896;48.178;11.578;2023-06-10T00:17:51;6.80;;;5.20;;
58091;SDS011;43896;48.178;11.578;2023-06-10T00:20:20;7.40;;;5.80;;
58091;SDS011;43896;48.178;11.578;2023-06-10T00:22:46;7.97;;;5.82;;
58091;SDS011;43896;48.178;11.578;2023-06-10T00:25:13;7.75;;;5.68;;
58091;SDS011;43896;48.178;11.578;2023-06-10T00:27:38;7.88;;;5.88;;
58091;SDS011;43896;48.178;11.578;2023-06-10T00:30:04;7.85;;;5.55;;
58091;SDS011;43896;48.178;11.578;2023-06-10T00:32:32;7.63;;;5.88;;
58091;SDS011;43896;48.178;11.578;2023-06-10T00:34:58;7.65;;;5.38;;
58091;SDS011;43896;48.178;11.578;2023-06-10T00:37:23;8.63;;;5.80;;
58091;SDS011;43896;48.178;11.578;2023-06-10T00:39:49;7.20;;;5.70;;
58091;SDS011;43896;48.178;11.578;2023-06-10T00:42:14;8.52;;;5.75;;
58091;SDS011;43896;48.178;11.578;2023-06-10T00:44:39;8.07;;;5.90;;
58091;SDS011;43896;48.178;11.578;2023-06-10T00:47:05;7.45;;;6.30;;
58091;SDS011;43896;48.178;11.578;2023-06-10T00:49:31;8.27;;;6.32;;
58091;SDS011;43896;48.178;11.578;2023-06-10T00:51:57;7.40;;;5.97;;
58091;SDS011;43896;48.178;11.578;2023-06-10T00:54:23;7.20;;;5.85;;
58091;SDS011;43896;48.178;11.578;2023-06-10T00:56:48;8.18;;;5.80;;
58091;SDS011;43896;48.178;11.578;2023-06-10T00:59:14;7.07;;;5.93;;
58091;SDS011;43896;48.178;11.578;2023-06-10T01:01:41;7.20;;;5.93;;
58091;SDS011;43896;48.178;11.578;2023-06-10T01:04:08;8.13;;;5.85;;
58091;SDS011;43896;48.178;11.578;2023-06-10T01:11:58;9.60;;;6.45;;
58091;SDS011;43896;48.178;11.578;2023-06-10T01:14:33;8.80;;;6.55;;
58091;SDS011;43896;48.178;11.578;2023-06-10T01:16:58;9.15;;;6.60;;
58091;SDS011;43896;48.178;11.578;2023-06-10T01:19:25;8.27;;;6.82;;
58091;SDS011;43896;48.178;11.578;2023-06-10T01:21:51;9.10;;;6.47;;
58091;SDS011;43896;48.178;11.578;2023-06-10T01:24:16;7.07;;;5.85;;
58091;SDS011;43896;48.178;11.578;2023-06-10T01:26:43;7.28;;;5.85;;
58091;SDS011;43896;48.178;11.578;2023-06-10T01:29:30;8.00;;;5.90;;
58091;SDS011;43896;48.178;11.578;2023-06-10T01:32:15;8.20;;;6.43;;
58091;SDS011;43896;48.178;11.578;2023-06-10T01:34:43;7.47;;;5.97;;
58091;SDS011;43896;48.178;11.578;2023-06-10T01:37:12;9.93;;;6.47;;
58091;SDS011;43896;48.178;11.578;2023-06-10T01:39:40;7.82;;;5.75;;
58091;SDS011;43896;48.178;11.578;2023-06-10T01:42:07;7.20;;;6.05;;
58091;SDS011;43896;48.178;11.578;2023-06-10T01:44:33;8.05;;;6.10;;
58091;SDS011;43896;48.178;11.578;2023-06-10T01:46:59;8.40;;;5.97;;
58091;SDS011;43896;48.178;11.578;2023-06-10T01:49:24;7.47;;;6.20;;
58091;SDS011;43896;48.178;11.578;2023-06-10T01:51:51;7.90;;;6.28;;
58091;SDS011;43896;48.178;11.578;2023-06-10T01:54:16;7.78;;;6.15;;
58091;SDS011;43896;48.178;11.578;2023-06-10T01:56:41;7.13;;;5.95;;
58091;SDS011;43896;48.178;11.578;2023-06-10T01:59:07;9.15;;;5.72;;
58091;SDS011;43896;48.178;11.578;2023-06-10T02:01:33;7.95;;;6.00;;
58091;SDS011;43896;48.178;11.578;2023-06-10T02:03:58;7.85;;;6.30;;
58091;SDS011;43896;48.178;11.578;2023-06-10T02:06:24;8.15;;;6.22;;
58091;SDS011;43896;48.178;11.578;2023-06-10T02:08:49;7.35;;;6.20;;
58091;SDS011;43896;48.178;11.578;2023-06-10T02:11:14;8.50;;;6.25;;
58091;SDS011;43896;48.178;11.578;2023-06-10T02:13:40;8.68;;;6.55;;
58091;SDS011;43896;48.178;11.578;2023-06-10T02:16:05;8.93;;;6.60;;
58091;SDS011;43896;48.178;11.578;2023-06-10T02:18:31;8.32;;;6.72;;
58091;SDS011;43896;48.178;11.578;2023-06-10T02:20:56;8.48;;;6.40;;
58091;SDS011;43896;48.178;11.578;2023-06-10T02:23:22;8.63;;;6.50;;
58091;SDS011;43896;48.178;11.578;2023-06-10T02:25:47;10.48;;;6.80;;
58091;SDS011;43896;48.178;11.578;2023-06-10T02:28:13;8.07;;;6.45;;
58091;SDS011;43896;48.178;11.578;2023-06-10T02:30:39;8.13;;;6.45;;
58091;SDS011;43896;48.178;11.578;2023-06-10T02:33:06;7.32;;;6.00;;
58091;SDS011;43896;48.178;11.578;2023-06-10T02:35:34;8.05;;;6.80;;
58091;SDS011;43896;48.178;11.578;2023-06-10T02:38:00;8.52;;;6.80;;
58091;SDS011;43896;48.178;11.578;2023-06-10T02:40:26;10.43;;;6.72;;
58091;SDS011;43896;48.178;11.578;2023-06-10T02:42:51;8.35;;;6.93;;
58091;SDS011;43896;48.178;11.578;2023-06-10T02:45:16;8.35;;;6.60;;
58091;SDS011;43896;48.178;11.578;2023-06-10T02:47:42;8.77;;;7.10;;
58091;SDS011;43896;48.178;11.578;2023-06-10T02:50:07;9.95;;;6.72;;
58091;SDS011;43896;48.178;11.578;2023-06-10T02:52:33;9.43;;;7.10;;
58091;SDS011;43896;48.178;11.578;2023-06-10T02:54:58;9.00;;;7.00;;
58091;SDS011;43896;48.178;11.578;2023-06-10T02:57:24;8.75;;;6.95;;
58091;SDS011;43896;48.178;11.578;2023-06-10T02:59:49;8.60;;;7.07;;
58091;SDS011;43896;48.178;11.578;2023-06-10T03:02:16;9.63;;;7.43;;
58091;SDS011;43896;48.178;11.578;2023-06-10T03:04:41;9.73;;;7.18;;
58091;SDS011;43896;48.178;11.578;2023-06-10T03:07:08;9.40;;;7.35;;
58091;SDS011;43896;48.178;11.578;2023-06-10T03:09:36;9.13;;;6.93;;
58091;SDS011;43896;48.178;11.578;2023-06-10T03:12:02;8.82;;;7.05;;
58091;SDS011;43896;48.178;11.578;2023-06-10T03:14:28;9.50;;;7.18;;
58091;SDS011;43896;48.178;11.578;2023-06-10T03:16:53;10.73;;;6.95;;
58091;SDS011;43896;48.178;11.578;2023-06-10T03:19:19;9.25;;;7.80;;
58091;SDS011;43896;48.178;11.578;2023-06-10T03:21:49;9.52;;;7.15;;
58091;SDS011;43896;48.178;11.578;2023-06-10T03:24:19;10.02;;;7.55;;
58091;SDS011;43896;48.178;11.578;2023-06-10T03:26:45;9.25;;;7.20;;
58091;SDS011;43896;48.178;11.578;2023-06-10T03:29:11;10.73;;;7.53;;
58091;SDS011;43896;48.178;11.578;2023-06-10T03:31:36;9.00;;;7.32;;
58091;SDS011;43896;48.178;11.578;2023-06-10T03:34:02;9.60;;;7.35;;
58091;SDS011;43896;48.178;11.578;2023-06-10T03:36:27;10.07;;;8.00;;
58091;SDS011;43896;48.178;11.578;2023-06-10T03:38:54;8.98;;;7.25;;
58091;SDS011;43896;48.178;11.578;2023-06-10T03:41:21;10.63;;;7.85;;
58091;SDS011;43896;48.178;11.578;2023-06-10T03:43:47;9.32;;;7.35;;
58091;SDS011;43896;48.178;11.578;2023-06-10T03:46:13;11.85;;;8.13;;
58091;SDS011;43896;48.178;11.578;2023-06-10T03:48:42;10.30;;;7.47;;
58091;SDS011;43896;48.178;11.578;2023-06-10T03:51:07;10.00;;;7.18;;
58091;SDS011;43896;48.178;11.578;2023-06-10T03:53:33;9.43;;;7.03;;
58091;SDS011;43896;48.178;11.578;2023-06-10T03:55:58;9.45;;;7.40;;
58091;SDS011;43896;48.178;11.578;2023-06-10T03:58:23;8.80;;;7.35;;
58091;SDS011;43896;48.178;11.578;2023-06-10T04:00:49;9.82;;;7.63;;
58091;SDS011;43896;48.178;11.578;2023-06-10T04:03:15;9.60;;;7.32;;
58091;SDS011;43896;48.178;11.578;2023-06-10T04:05:40;9.55;;;7.45;;
58091;SDS011;43896;48.178;11.578;2023-06-10T04:08:09;9.82;;;7.55;;
58091;SDS011;43896;48.178;11.578;2023-06-10T04:10:34;9.30;;;7.32;;
58091;SDS011;43896;48.178;11.578;2023-06-10T04:13:00;9.85;;;8.20;;
58091;SDS011;43896;48.178;11.578;2023-06-10T04:15:25;9.63;;;7.43;;
58091;SDS011;43896;48.178;11.578;2023-06-10T04:17:50;9.95;;;7.50;;
58091;SDS011;43896;48.178;11.578;2023-06-10T04:20:16;9.55;;;7.63;;
58091;SDS011;43896;48.178;11.578;2023-06-10T04:22:41;9.98;;;7.53;;
58091;SDS011;43896;48.178;11.578;2023-06-10T04:25:08;10.07;;;7.30;;
58091;SDS011;43896;48.178;11.578;2023-06-10T04:27:34;8.90;;;6.95;;
58091;SDS011;43896;48.178;11.578;2023-06-10T04:30:00;10.50;;;7.72;;
58091;SDS011;43896;48.178;11.578;2023-06-10T04:32:26;11.90;;;8.00;;
58091;SDS011;43896;48.178;11.578;2023-06-10T04:34:51;9.35;;;7.55;;
58091;SDS011;43896;48.178;11.578;2023-06-10T04:37:17;9.15;;;7.03;;
58091;SDS011;43896;48.178;11.578;2023-06-10T04:39:43;10.27;;;7.22;;
58091;SDS011;43896;48.178;11.578;2023-06-10T04:42:08;10.15;;;7.75;;
58091;SDS011;43896;48.178;11.578;2023-06-10T04:44:33;10.48;;;7.95;;
58091;SDS011;43896;48.178;11.578;2023-06-10T04:46:59;9.75;;;7.53;;
58091;SDS011;43896;48.178;11.578;2023-06-10T04:49:24;9.30;;;7.63;;
58091;SDS011;43896;48.178;11.578;2023-06-10T04:51:49;9.80;;;7.65;;
58091;SDS011;43896;48.178;11.578;2023-06-10T04:54:16;9.82;;;8.30;;
58091;SDS011;43896;48.178;11.578;2023-06-10T04:56:41;9.68;;;7.78;;
58091;SDS011;43896;48.178;11.578;2023-06-10T04:59:07;11.05;;;8.00;;
58091;SDS011;43896;48.178;11.578;2023-06-10T05:01:32;9.40;;;7.07;;
58091;SDS011;43896;48.178;11.578;2023-06-10T05:03:58;10.07;;;8.25;;
58091;SDS011;43896;48.178;11.578;2023-06-10T05:06:23;9.95;;;7.70;;
58091;SDS011;43896;48.178;11.578;2023-06-10T05:08:48;11.07;;;8.30;;
58091;SDS011;43896;48.178;11.578;2023-06-10T05:11:14;9.98;;;8.15;;
58091;SDS011;43896;48.178;11.578;2023-06-10T05:13:41;10.50;;;8.05;;
58091;SDS011;43896;48.178;11.578;2023-06-10T05:16:07;10.85;;;8.73;;
58091;SDS011;43896;48.178;11.578;2023-06-10T05:18:33;10.40;;;8.20;;
58091;SDS011;43896;48.178;11.578;2023-06-10T05:20:58;11.48;;;8.30;;
58091;SDS011;43896;48.178;11.578;2023-06-10T05:23:24;10.68;;;8.25;;
58091;SDS011;43896;48.178;11.578;2023-06-10T05:25:49;10.90;;;7.88;;
58091;SDS011;43896;48.178;11.578;2023-06-10T05:28:14;10.88;;;8.05;;
58091;SDS011;43896;48.178;11.578;2023-06-10T05:30:40;9.48;;;7.60;;
58091;SDS011;43896;48.178;11.578;2023-06-10T05:33:05;10.65;;;8.15;;
58091;SDS011;43896;48.178;11.578;2023-06-10T05:35:31;10.70;;;7.85;;
58091;SDS011;43896;48.178;11.578;2023-06-10T05:37:56;13.05;;;8.80;;
58091;SDS011;43896;48.178;11.578;2023-06-10T05:40:21;10.88;;;7.75;;
58091;SDS011;43896;48.178;11.578;2023-06-10T05:42:46;9.68;;;7.95;;
58091;SDS011;43896;48.178;11.578;2023-06-10T05:45:12;11.00;;;8.55;;
58091;SDS011;43896;48.178;11.578;2023-06-10T05:47:37;11.00;;;8.35;;
58091;SDS011;43896;48.178;11.578;2023-06-10T05:50:03;10.77;;;7.93;;
58091;SDS011;43896;48.178;11.578;2023-06-10T05:52:32;11.33;;;8.80;;
58091;SDS011;43896;48.178;11.578;2023-06-10T05:55:01;11.43;;;8.40;;
58091;SDS011;43896;48.178;11.578;2023-06-10T05:57:30;11.45;;;8.55;;
58091;SDS011;43896;48.178;11.578;2023-06-10T05:59:56;13.10;;;9.05;;
58091;SDS011;43896;48.178;11.578;2023-06-10T06:02:21;10.63;;;8.68;;
58091;SDS011;43896;48.178;11.578;2023-06-10T06:04:46;11.07;;;8.57;;
58091;SDS011;43896;48.178;11.578;2023-06-10T06:07:11;10.50;;;8.32;;
58091;SDS011;43896;48.178;11.578;2023-06-10T06:09:37;10.70;;;7.97;;
58091;SDS011;43896;48.178;11.578;2023-06-10T06:12:02;10.88;;;8.10;;
58091;SDS011;43896;48.178;11.578;2023-06-10T06:14:30;13.10;;;9.07;;
58091;SDS011;43896;48.178;11.578;2023-06-10T06:16:56;10.82;;;8.85;;
58091;SDS011;43896;48.178;11.578;2023-06-10T06:19:21;10.18;;;7.68;;
58091;SDS011;43896;48.178;11.578;2023-06-10T06:21:46;10.45;;;7.97;;
58091;SDS011;43896;48.178;11.578;2023-06-10T06:24:11;10.75;;;7.43;;
58091;SDS011;43896;48.178;11.578;2023-06-10T06:26:37;10.63;;;8.40;;
58091;SDS011;43896;48.178;11.578;2023-06-10T06:29:02;12.32;;;7.85;;
58091;SDS011;43896;48.178;11.578;2023-06-10T06:31:27;9.40;;;7.15;;
58091;SDS011;43896;48.178;11.578;2023-06-10T06:33:53;11.48;;;8.75;;
58091;SDS011;43896;48.178;11.578;2023-06-10T06:36:18;10.45;;;8.35;;
58091;SDS011;43896;48.178;11.578;2023-06-10T06:38:43;9.80;;;7.43;;
58091;SDS011;43896;48.178;11.578;2023-06-10T06:41:08;12.52;;;7.90;;
58091;SDS011;43896;48.178;11.578;2023-06-10T06:43:34;11.15;;;7.70;;
58091;SDS011;43896;48.178;11.578;2023-06-10T06:45:59;10.82;;;7.72;;
58091;SDS011;43896;48.178;11.578;2023-06-10T06:48:24;11.10;;;8.38;;
58091;SDS011;43896;48.178;11.578;2023-06-10T06:50:50;10.13;;;7.97;;
58091;SDS011;43896;48.178;11.578;2023-06-10T06:53:15;12.13;;;8.50;;
58091;SDS011;43896;48.178;11.578;2023-06-10T06:55:40;10.82;;;8.02;;
58091;SDS011;43896;48.178;11.578;2023-06-10T06:58:06;11.52;;;8.77;;
58091;SDS011;43896;48.178;11.578;2023-06-10T07:00:31;10.48;;;7.78;;
58091;SDS011;43896;48.178;11.578;2023-06-10T07:02:57;11.25;;;7.78;;
58091;SDS011;43896;48.178;11.578;2023-06-10T07:05:23;10.05;;;7.88;;
58091;SDS011;43896;48.178;11.578;2023-06-10T07:07:52;10.07;;;7.37;;
58091;SDS011;43896;48.178;11.578;2023-06-10T07:10:20;10.35;;;7.70;;
58091;SDS011;43896;48.178;11.578;2023-06-10T07:12:47;10.73;;;8.00;;
58091;SDS011;43896;48.178;11.578;2023-06-10T07:15:12;10.02;;;7.22;;
58091;SDS011;43896;48.178;11.578;2023-06-10T07:17:37;10.43;;;7.28;;
58091;SDS011;43896;48.178;11.578;2023-06-10T07:20:03;10.13;;;7.20;;
58091;SDS011;43896;48.178;11.578;2023-06-10T07:22:28;8.77;;;6.93;;
58091;SDS011;43896;48.178;11.578;2023-06-10T07:24:54;9.48;;;6.18;;
58091;SDS011;43896;48.178;11.578;2023-06-10T07:27:20;8.18;;;6.25;;
58091;SDS011;43896;48.178;11.578;2023-06-10T07:29:46;8.52;;;6.20;;
58091;SDS011;43896;48.178;11.578;2023-06-10T07:32:11;7.72;;;6.05;;
58091;SDS011;43896;48.178;11.578;2023-06-10T07:34:36;8.63;;;6.40;;
58091;SDS011;43896;48.178;11.578;2023-06-10T07:37:01;8.73;;;5.85;;
58091;SDS011;43896;48.178;11.578;2023-06-10T07:39:27;7.97;;;5.95;;
58091;SDS011;43896;48.178;11.578;2023-06-10T07:41:52;7.20;;;5.75;;
58091;SDS011;43896;48.178;11.578;2023-06-10T07:44:19;8.23;;;5.97;;
58091;SDS011;43896;48.178;11.578;2023-06-10T07:46:44;8.60;;;5.88;;
58091;SDS011;43896;48.178;11.578;2023-06-10T07:49:10;7.95;;;5.97;;
58091;SDS011;43896;48.178;11.578;2023-06-10T07:51:35;8.02;;;6.00;;
58091;SDS011;43896;48.178;11.578;2023-06-10T07:54:01;9.68;;;6.20;;
58091;SDS011;43896;48.178;11.578;2023-06-10T07:56:27;7.57;;;5.97;;
58091;SDS011;43896;48.178;11.578;2023-06-10T07:58:52;7.82;;;5.20;;
58091;SDS011;43896;48.178;11.578;2023-06-10T08:01:17;7.13;;;5.30;;
58091;SDS011;43896;48.178;11.578;2023-06-10T08:03:43;7.75;;;5.70;;
58091;SDS011;43896;48.178;11.578;2023-06-10T08:06:08;7.90;;;5.50;;
58091;SDS011;43896;48.178;11.578;2023-06-10T08:08:36;8.70;;;5.88;;
58091;SDS011;43896;48.178;11.578;2023-06-10T08:11:06;8.90;;;5.80;;
58091;SDS011;43896;48.178;11.578;2023-06-10T08:13:31;8.00;;;5.65;;
58091;SDS011;43896;48.178;11.578;2023-06-10T08:15:56;8.57;;;5.47;;
58091;SDS011;43896;48.178;11.578;2023-06-10T08:18:22;8.40;;;5.50;;
58091;SDS011;43896;48.178;11.578;2023-06-10T08:20:47;7.03;;;5.53;;
58091;SDS011;43896;48.178;11.578;2023-06-10T08:23:13;7.35;;;5.63;;
58091;SDS011;43896;48.178;11.578;2023-06-10T08:25:39;7.97;;;5.47;;
58091;SDS011;43896;48.178;11.578;2023-06-10T08:28:04;6.18;;;4.38;;
58091;SDS011;43896;48.178;11.578;2023-06-10T08:30:29;6.18;;;4.80;;
58091;SDS011;43896;48.178;11.578;2023-06-10T08:32:55;6.65;;;5.07;;
58091;SDS011;43896;48.178;11.578;2023-06-10T08:35:20;6.72;;;4.70;;
58091;SDS011;43896;48.178;11.578;2023-06-10T08:37:46;6.50;;;4.75;;
58091;SDS011;43896;48.178;11.578;2023-06-10T08:40:12;6.30;;;4.80;;
58091;SDS011;43896;48.178;11.578;2023-06-10T08:42:45;6.63;;;4.55;;
58091;SDS011;43896;48.178;11.578;2023-06-10T08:45:18;6.90;;;4.57;;
58091;SDS011;43896;48.178;11.578;2023-06-10T08:47:46;6.53;;;4.78;;
58091;SDS011;43896;48.178;11.578;2023-06-10T08:50:16;6.68;;;4.53;;
58091;SDS011;43896;48.178;11.578;2023-06-10T08:52:43;5.88;;;4.10;;
58091;SDS011;43896;48.178;11.578;2023-06-10T08:55:13;5.63;;;3.92;;
58091;SDS011;43896;48.178;11.578;2023-06-10T08:57:44;6.43;;;4.72;;
58091;SDS011;43896;48.178;11.578;2023-06-10T09:00:10;6.10;;;4.50;;
58091;SDS011;43896;48.178;11.578;2023-06-10T09:02:37;6.25;;;4.63;;
58091;SDS011;43896;48.178;11.578;2023-06-10T09:05:03;6.57;;;4.70;;
58091;SDS011;43896;48.178;11.578;2023-06-10T09:07:30;6.20;;;4.68;;
58091;SDS011;43896;48.178;11.578;2023-06-10T09:10:01;7.00;;;4.57;;
58091;SDS011;43896;48.178;11.578;2023-06-10T09:12:32;6.10;;;4.40;;
58091;SDS011;43896;48.178;11.578;2023-06-10T09:14:59;6.10;;;4.50;;
58091;SDS011;43896;48.178;11.578;2023-06-10T09:17:24;6.25;;;4.40;;
58091;SDS011;43896;48.178;11.578;2023-06-10T09:19:50;6.82;;;4.50;;
58091;SDS011;43896;48.178;11.578;2023-06-10T09:22:18;6.13;;;4.55;;
58091;SDS011;43896;48.178;11.578;2023-06-10T09:24:44;7.57;;;4.60;;
58091;SDS011;43896;48.178;11.578;2023-06-10T09:27:11;5.53;;;4.00;;
58091;SDS011;43896;48.178;11.578;2023-06-10T09:29:53;6.95;;;4.18;;
58091;SDS011;43896;48.178;11.578;2023-06-10T09:32:19;5.22;;;3.72;;
58091;SDS011;43896;48.178;11.578;2023-06-10T09:34:46;5.95;;;3.80;;
58091;SDS011;43896;48.178;11.578;2023-06-10T09:37:12;6.28;;;4.18;;
58091;SDS011;43896;48.178;11.578;2023-06-10T09:39:39;5.75;;;3.60;;
58091;SDS011;43896;48.178;11.578;2023-06-10T09:42:17;4.75;;;3.63;;
58091;SDS011;43896;48.178;11.578;2023-06-10T09:44:52;6.47;;;3.97;;
58091;SDS011;43896;48.178;11.578;2023-06-10T09:47:20;6.10;;;3.80;;
58091;SDS011;43896;48.178;11.578;2023-06-10T09:49:47;5.25;;;3.90;;
58091;SDS011;43896;48.178;11.578;2023-06-10T09:52:13;5.80;;;3.95;;
58091;SDS011;43896;48.178;11.578;2023-06-10T09:54:39;5.53;;;4.05;;
58091;SDS011;43896;48.178;11.578;2023-06-10T09:57:07;5.40;;;3.60;;
58091;SDS011;43896;48.178;11.578;2023-06-10T09:59:34;6.63;;;4.05;;
58091;SDS011;43896;48.178;11.578;2023-06-10T10:02:00;6.32;;;3.80;;
58091;SDS011;43896;48.178;11.578;2023-06-10T10:04:26;5.95;;;4.10;;
58091;SDS011;43896;48.178;11.578;2023-06-10T10:06:52;5.85;;;4.13;;
58091;SDS011;43896;48.178;11.578;2023-06-10T10:09:17;5.15;;;3.55;;
58091;SDS011;43896;48.178;11.578;2023-06-10T10:11:43;6.30;;;4.28;;
58091;SDS011;43896;48.178;11.578;2023-06-10T10:14:09;5.50;;;3.60;;
58091;SDS011;43896;48.178;11.578;2023-06-10T10:16:40;7.90;;;5.25;;
58091;SDS011;43896;48.178;11.578;2023-06-10T10:19:18;5.40;;;3.80;;
58091;SDS011;43896;48.178;11.578;2023-06-10T10:21:58;4.88;;;3.42;;
58091;SDS011;43896;48.178;11.578;2023-06-10T10:24:36;5.35;;;3.60;;
58091;SDS011;43896;48.178;11.578;2023-06-10T10:27:07;6.10;;;4.55;;
58091;SDS011;43896;48.178;11.578;2023-06-10T10:29:39;8.77;;;4.97;;
58091;SDS011;43896;48.178;11.578;2023-06-10T10:32:06;6.97;;;5.57;;
58091;SDS011;43896;48.178;11.578;2023-06-10T10:34:41;5.38;;;3.80;;
58091;SDS011;43896;48.178;11.578;2023-06-10T10:37:13;4.72;;;3.40;;
58091;SDS011;43896;48.178;11.578;2023-06-10T10:39:38;4.90;;;3.50;;
58091;SDS011;43896;48.178;11.578;2023-06-10T10:42:04;4.78;;;3.08;;
58091;SDS011;43896;48.178;11.578;2023-06-10T10:44:34;4.35;;;2.97;;
58091;SDS011;43896;48.178;11.578;2023-06-10T10:47:02;5.22;;;3.35;;
58091;SDS011;43896;48.178;11.578;2023-06-10T10:49:28;6.00;;;3.72;;
58091;SDS011;43896;48.178;11.578;2023-06-10T10:54:30;4.97;;;3.40;;
58091;SDS011;43896;48.178;11.578;2023-06-10T10:59:58;5.30;;;3.50;;
58091;SDS011;43896;48.178;11.578;2023-06-10T11:04:58;4.75;;;2.95;;
58091;SDS011;43896;48.178;11.578;2023-06-10T11:07:25;4.50;;;2.97;;
58091;SDS011;43896;48.178;11.578;2023-06-10T11:09:57;4.45;;;2.95;;
58091;SDS011;43896;48.178;11.578;2023-06-10T11:15:11;4.25;;;2.75;;
58091;SDS011;43896;48.178;11.578;2023-06-10T11:20:43;5.07;;;3.20;;
58091;SDS011;43896;48.178;11.578;2023-06-10T11:31:20;4.47;;;3.15;;
58091;SDS011;43896;48.178;11.578;2023-06-10T11:33:51;3.97;;;2.70;;
58091;SDS011;43896;48.178;11.578;2023-06-10T11:36:18;4.63;;;3.08;;
58091;SDS011;43896;48.178;11.578;2023-06-10T11:38:43;5.70;;;3.30;;
58091;SDS011;43896;48.178;11.578;2023-06-10T11:41:10;4.70;;;3.08;;
58091;SDS011;43896;48.178;11.578;2023-06-10T11:43:36;5.35;;;3.08;;
58091;SDS011;43896;48.178;11.578;2023-06-10T11:46:02;5.20;;;3.20;;
58091;SDS011;43896;48.178;11.578;2023-06-10T11:48:27;3.97;;;2.35;;
58091;SDS011;43896;48.178;11.578;2023-06-10T11:50:56;3.90;;;2.53;;
58091;SDS011;43896;48.178;11.578;2023-06-10T11:53:21;4.22;;;2.47;;
58091;SDS011;43896;48.178;11.578;2023-06-10T11:55:47;3.83;;;2.42;;
58091;SDS011;43896;48.178;11.578;2023-06-10T11:58:15;4.65;;;2.50;;
58091;SDS011;43896;48.178;11.578;2023-06-10T12:00:54;3.90;;;2.50;;
58091;SDS011;43896;48.178;11.578;2023-06-10T12:03:23;5.00;;;3.20;;
58091;SDS011;43896;48.178;11.578;2023-06-10T12:05:59;5.20;;;3.20;;
58091;SDS011;43896;48.178;11.578;2023-06-10T12:08:28;4.88;;;3.25;;
58091;SDS011;43896;48.178;11.578;2023-06-10T12:10:56;4.25;;;2.88;;
58091;SDS011;43896;48.178;11.578;2023-06-10T12:13:22;4.68;;;3.38;;
58091;SDS011;43896;48.178;11.578;2023-06-10T12:15:52;5.85;;;3.40;;
58091;SDS011;43896;48.178;11.578;2023-06-10T12:20:43;5.47;;;3.10;;
58091;SDS011;43896;48.178;11.578;2023-06-10T12:23:09;4.57;;;3.05;;
58091;SDS011;43896;48.178;11.578;2023-06-10T12:25:36;5.88;;;3.25;;
58091;SDS011;43896;48.178;11.578;2023-06-10T12:28:04;4.50;;;3.00;;
58091;SDS011;43896;48.178;11.578;2023-06-10T12:30:30;4.88;;;3.00;;
58091;SDS011;43896;48.178;11.578;2023-06-10T12:32:56;4.13;;;2.50;;
58091;SDS011;43896;48.178;11.578;2023-06-10T12:35:23;5.28;;;2.72;;
58091;SDS011;43896;48.178;11.578;2023-06-10T12:40:36;4.30;;;2.35;;
58091;SDS011;43896;48.178;11.578;2023-06-10T12:43:05;4.60;;;2.97;;
58091;SDS011;43896;48.178;11.578;2023-06-10T12:45:33;4.20;;;2.70;;
58091;SDS011;43896;48.178;11.578;2023-06-10T12:50:35;5.03;;;2.70;;
58091;SDS011;43896;48.178;11.578;2023-06-10T12:53:04;3.92;;;2.50;;
58091;SDS011;43896;48.178;11.578;2023-06-10T12:55:29;3.80;;;2.40;;
58091;SDS011;43896;48.178;11.578;2023-06-10T12:57:55;6.45;;;3.67;;
58091;SDS011;43896;48.178;11.578;2023-06-10T13:00:22;5.43;;;3.70;;
58091;SDS011;43896;48.178;11.578;2023-06-10T13:02:50;5.30;;;3.73;;
58091;SDS011;43896;48.178;11.578;2023-06-10T13:05:16;5.35;;;3.55;;
58091;SDS011;43896;48.178;11.578;2023-06-10T13:07:43;5.57;;;3.80;;
58091;SDS011;43896;48.178;11.578;2023-06-10T13:10:08;5.28;;;3.72;;
58091;SDS011;43896;48.178;11.578;2023-06-10T13:12:34;5.53;;;3.70;;
58091;SDS011;43896;48.178;11.578;2023-06-10T13:15:01;4.97;;;3.70;;
58091;SDS011;43896;48.178;11.578;2023-06-10T13:17:26;5.10;;;3.70;;
58091;SDS011;43896;48.178;11.578;2023-06-10T13:19:52;6.47;;;3.90;;
58091;SDS011;43896;48.178;11.578;2023-06-10T13:22:18;5.78;;;3.70;;
58091;SDS011;43896;48.178;11.578;2023-06-10T13:24:45;4.85;;;3.63;;
58091;SDS011;43896;48.178;11.578;2023-06-10T13:27:10;5.05;;;3.40;;
58091;SDS011;43896;48.178;11.578;2023-06-10T13:29:36;5.03;;;3.40;;
58091;SDS011;43896;48.178;11.578;2023-06-10T13:32:01;5.15;;;3.50;;
58091;SDS011;43896;48.178;11.578;2023-06-10T13:34:26;5.60;;;3.80;;
58091;SDS011;43896;48.178;11.578;2023-06-10T13:36:53;5.13;;;3.45;;
58091;SDS011;43896;48.178;11.578;2023-06-10T13:39:18;5.80;;;3.40;;
58091;SDS011;43896;48.178;11.578;2023-06-10T13:41:44;4.75;;;3.63;;
58091;SDS011;43896;48.178;11.578;2023-06-10T13:44:09;10.00;;;7.18;;
58091;SDS011;43896;48.178;11.578;2023-06-10T13:46:34;6.13;;;3.80;;
58091;SDS011;43896;48.178;11.578;2023-06-10T13:49:00;5.80;;;3.30;;
58091;SDS011;43896;48.178;11.578;2023-06-10T13:51:25;6.22;;;3.30;;
58091;SDS011;43896;48.178;11.578;2023-06-10T13:53:51;4.45;;;3.00;;
58091;SDS011;43896;48.178;11.578;2023-06-10T13:56:17;4.93;;;3.35;;
58091;SDS011;43896;48.178;11.578;2023-06-10T13:58:42;5.88;;;3.05;;
58091;SDS011;43896;48.178;11.578;2023-06-10T14:01:08;5.53;;;2.92;;
58091;SDS011;43896;48.178;11.578;2023-06-10T14:03:33;4.50;;;3.28;;
58091;SDS011;43896;48.178;11.578;2023-06-10T14:05:58;4.85;;;3.33;;
58091;SDS011;43896;48.178;11.578;2023-06-10T14:08:24;5.90;;;3.20;;
58091;SDS011;43896;48.178;11.578;2023-06-10T14:10:49;5.88;;;3.35;;
58091;SDS011;43896;48.178;11.578;2023-06-10T14:13:16;4.93;;;3.50;;
58091;SDS011;43896;48.178;11.578;2023-06-10T14:15:42;5.25;;;3.42;;
58091;SDS011;43896;48.178;11.578;2023-06-10T14:18:07;5.10;;;3.38;;
58091;SDS011;43896;48.178;11.578;2023-06-10T14:20:33;5.35;;;3.83;;
58091;SDS011;43896;48.178;11.578;2023-06-10T14:22:58;5.47;;;3.97;;
58091;SDS011;43896;48.178;11.578;2023-06-10T14:25:24;4.80;;;3.20;;
58091;SDS011;43896;48.178;11.578;2023-06-10T14:27:50;4.70;;;3.10;;
58091;SDS011;43896;48.178;11.578;2023-06-10T14:30:15;5.65;;;3.10;;
58091;SDS011;43896;48.178;11.578;2023-06-10T14:32:40;4.25;;;2.80;;
58091;SDS011;43896;48.178;11.578;2023-06-10T14:35:06;4.72;;;2.83;;
58091;SDS011;43896;48.178;11.578;2023-06-10T14:37:31;4.93;;;3.00;;
58091;SDS011;43896;48.178;11.578;2023-06-10T14:39:56;4.45;;;2.95;;
58091;SDS011;43896;48.178;11.578;2023-06-10T14:42:22;5.15;;;2.97;;
58091;SDS011;43896;48.178;11.578;2023-06-10T14:44:47;4.68;;;2.50;;
58091;SDS011;43896;48.178;11.578;2023-06-10T14:47:13;4.07;;;2.70;;
58091;SDS011;43896;48.178;11.578;2023-06-10T14:49:38;4.60;;;3.30;;
58091;SDS011;43896;48.178;11.578;2023-06-10T14:52:03;4.97;;;3.20;;
58091;SDS011;43896;48.178;11.578;2023-06-10T14:54:29;4.75;;;2.97;;
58091;SDS011;43896;48.178;11.578;2023-06-10T14:56:54;4.80;;;3.10;;
58091;SDS011;43896;48.178;11.578;2023-06-10T14:59:19;4.72;;;3.13;;
58091;SDS011;43896;48.178;11.578;2023-06-10T15:01:45;5.00;;;3.25;;